createdAt,value
2023-04-09T00:00:01.561Z,98881.97
2023-04-09T00:03:04.800Z,98882.78
2023-04-09T00:06:08.060Z,98878.84
2023-04-09T00:09:11.011Z,98891.59
2023-04-09T00:12:15.630Z,98877.31
2023-04-09T00:15:30.039Z,98881.97
2023-04-09T00:18:40.367Z,98877.19
2023-04-09T00:21:43.676Z,98877.66
2023-04-09T00:24:46.472Z,98876.00
2023-04-09T00:27:50.657Z,98887.25
2023-04-09T00:30:53.651Z,98874.16
2023-04-09T00:33:56.524Z,98870.69
2023-04-09T00:36:59.321Z,98873.22
2023-04-09T00:40:01.994Z,98865.53
2023-04-09T00:43:06.748Z,98867.66
2023-04-09T00:46:09.559Z,98866.81
2023-04-09T00:49:12.369Z,98868.38
2023-04-09T00:52:15.569Z,98864.31
2023-04-09T00:55:19.750Z,98865.03
2023-04-09T00:58:23.909Z,98866.91
2023-04-09T01:01:26.730Z,98862.38
2023-04-09T01:04:29.572Z,98865.69
2023-04-09T01:07:43.463Z,98861.50
2023-04-09T01:10:52.861Z,98866.84
2023-04-09T01:14:06.235Z,98868.88
2023-04-09T01:17:16.563Z,98862.13
2023-04-09T01:20:28.484Z,98859.22
2023-04-09T01:23:46.462Z,98855.16
2023-04-09T01:26:58.306Z,98859.13
2023-04-09T01:30:06.554Z,98854.75
2023-04-09T01:33:12.577Z,98855.41
2023-04-09T01:36:15.823Z,98863.78
2023-04-09T01:39:18.986Z,98859.59
2023-04-09T01:42:22.527Z,98860.16
2023-04-09T01:45:27.268Z,98865.94
2023-04-09T01:48:31.274Z,98867.97
2023-04-09T01:51:34.312Z,98861.56
2023-04-09T01:54:37.239Z,98866.06
2023-04-09T01:57:39.915Z,98854.81
2023-04-09T02:00:48.146Z,98859.50
2023-04-09T02:03:57.997Z,98862.75
2023-04-09T02:07:06.358Z,98862.75
2023-04-09T02:10:12.034Z,98864.72
2023-04-09T02:13:18.242Z,98860.91
2023-04-09T02:16:23.692Z,98863.31
2023-04-09T02:19:26.669Z,98856.72
2023-04-09T02:22:30.022Z,98861.19
2023-04-09T02:25:33.039Z,98849.75
2023-04-09T02:28:35.890Z,98854.31
2023-04-09T02:31:40.094Z,98847.22
2023-04-09T02:34:43.081Z,98854.31
2023-04-09T02:37:45.861Z,98847.50
2023-04-09T02:40:48.633Z,98845.88
2023-04-09T02:43:51.337Z,98852.97
2023-04-09T02:46:55.477Z,98855.78
2023-04-09T02:49:58.151Z,98853.50
2023-04-09T02:53:00.861Z,98850.97
2023-04-09T02:56:03.592Z,98854.91
2023-04-09T02:59:06.462Z,98859.53
2023-04-09T03:02:10.614Z,98852.34
2023-04-09T03:05:13.453Z,98852.44
2023-04-09T03:08:16.354Z,98845.50
2023-04-09T03:11:19.043Z,98838.84
2023-04-09T03:14:22.173Z,98854.22
2023-04-09T03:17:27.211Z,98838.56
2023-04-09T03:20:30.055Z,98844.84
2023-04-09T03:23:34.980Z,98847.75
2023-04-09T03:26:38.026Z,98842.66
2023-04-09T03:29:40.931Z,98840.94
2023-04-09T03:32:44.985Z,98839.31
2023-04-09T03:35:47.765Z,98840.25
2023-04-09T03:38:50.876Z,98841.22
2023-04-09T03:41:53.700Z,98844.53
2023-04-09T03:44:56.398Z,98837.13
2023-04-09T03:48:00.689Z,98841.06
2023-04-09T03:51:03.487Z,98836.41
2023-04-09T03:54:06.183Z,98841.28
2023-04-09T03:57:08.878Z,98835.47
2023-04-09T04:00:12.296Z,98841.19
2023-04-09T04:03:17.157Z,98839.53
2023-04-09T04:06:20.019Z,98834.69
2023-04-09T04:09:22.920Z,98837.38
2023-04-09T04:12:25.867Z,98836.06
2023-04-09T04:15:28.566Z,98836.91
2023-04-09T04:18:32.604Z,98839.56
2023-04-09T04:21:35.427Z,98849.06
2023-04-09T04:24:38.213Z,98849.22
2023-04-09T04:27:42.643Z,98842.72
2023-04-09T04:30:45.498Z,98853.72
2023-04-09T04:33:49.548Z,98851.41
2023-04-09T04:36:52.241Z,98852.94
2023-04-09T04:39:54.920Z,98851.75
2023-04-09T04:42:57.620Z,98851.31
2023-04-09T04:46:00.598Z,98855.13
2023-04-09T04:49:05.171Z,98856.38
2023-04-09T04:52:07.958Z,98858.47
2023-04-09T04:55:11.147Z,98854.19
2023-04-09T04:58:13.815Z,98864.16
2023-04-09T05:01:16.554Z,98853.97
2023-04-09T05:04:20.712Z,98854.53
2023-04-09T05:07:23.362Z,98861.38
2023-04-09T05:10:26.220Z,98863.88
2023-04-09T05:13:28.897Z,98863.19
2023-04-09T05:16:32.111Z,98864.69
2023-04-09T05:19:37.198Z,98871.09
2023-04-09T05:22:40.674Z,98865.06
2023-04-09T05:25:43.579Z,98861.69
2023-04-09T05:28:46.683Z,98868.88
2023-04-09T05:31:49.606Z,98862.97
2023-04-09T05:34:53.903Z,98874.22
2023-04-09T05:37:57.021Z,98874.56
2023-04-09T05:40:59.683Z,98869.44
2023-04-09T05:44:02.508Z,98873.59
2023-04-09T05:47:05.379Z,98872.31
2023-04-09T05:50:10.474Z,98871.38
2023-04-09T05:53:14.194Z,98874.63
2023-04-09T05:56:17.455Z,98869.97
2023-04-09T05:59:20.619Z,98864.28
2023-04-09T06:02:23.605Z,98870.84
2023-04-09T06:05:28.300Z,98871.03
2023-04-09T06:08:31.086Z,98879.25
2023-04-09T06:11:34.118Z,98876.81
2023-04-09T06:14:36.921Z,98872.78
2023-04-09T06:17:39.796Z,98869.34
2023-04-09T06:20:44.189Z,98867.00
2023-04-09T06:23:47.042Z,98866.41
2023-04-09T06:26:49.910Z,98862.59
2023-04-09T06:29:52.686Z,98854.41
2023-04-09T06:32:55.725Z,98863.66
2023-04-09T06:36:00.137Z,98863.16
2023-04-09T06:39:03.362Z,98864.66
2023-04-09T06:42:06.304Z,98867.00
2023-04-09T06:45:09.994Z,98869.00
2023-04-09T06:48:12.792Z,98869.63
2023-04-09T06:51:17.189Z,98877.69
2023-04-09T06:54:20.121Z,98870.03
2023-04-09T06:57:22.829Z,98869.22
2023-04-09T07:00:25.535Z,98863.44
2023-04-09T07:03:28.824Z,98865.94
2023-04-09T07:06:33.283Z,98860.84
2023-04-09T07:09:36.483Z,98866.28
2023-04-09T07:12:39.353Z,98862.91
2023-04-09T07:15:42.681Z,98865.50
2023-04-09T07:18:45.713Z,98861.97
2023-04-09T07:21:49.880Z,98875.69
2023-04-09T07:24:55.114Z,98866.81
2023-04-09T07:27:58.029Z,98862.47
2023-04-09T07:31:02.845Z,98864.91
2023-04-09T07:34:06.212Z,98873.81
2023-04-09T07:37:10.292Z,98867.88
2023-04-09T07:40:13.547Z,98867.88
2023-04-09T07:43:16.814Z,98872.47
2023-04-09T07:46:21.223Z,98865.63
2023-04-09T07:49:24.268Z,98877.81
2023-04-09T07:52:28.561Z,98888.84
2023-04-09T07:55:31.345Z,98888.06
2023-04-09T07:58:34.131Z,98903.97
2023-04-09T08:01:37.001Z,98903.94
2023-04-09T08:04:39.961Z,98904.22
2023-04-09T08:07:44.263Z,98896.59
2023-04-09T08:10:47.033Z,98899.09
2023-04-09T08:13:49.751Z,98892.91
2023-04-09T08:16:52.501Z,98893.47
2023-04-09T08:19:55.282Z,98888.84
2023-04-09T08:22:59.569Z,98894.47
2023-04-09T08:26:02.726Z,98888.56
2023-04-09T08:29:05.597Z,98892.06
2023-04-09T08:32:08.516Z,98890.69
2023-04-09T08:35:11.428Z,98897.69
2023-04-09T08:38:16.331Z,98896.88
2023-04-09T08:41:20.895Z,98897.94
2023-04-09T08:44:27.191Z,98897.38
2023-04-09T08:47:30.463Z,98898.94
2023-04-09T08:50:34.723Z,98901.47
2023-04-09T08:53:40.405Z,98895.13
2023-04-09T08:56:43.340Z,98892.22
2023-04-09T08:59:46.636Z,98905.63
2023-04-09T09:03:06.366Z,98901.13
2023-04-09T09:06:22.014Z,98905.72
2023-04-09T09:09:26.841Z,98904.66
2023-04-09T09:12:38.490Z,98902.84
2023-04-09T09:15:41.604Z,98904.06
2023-04-09T09:18:45.618Z,98902.00
2023-04-09T09:21:57.441Z,98901.00
2023-04-09T09:25:01.718Z,98899.75
2023-04-09T09:28:09.438Z,98902.19
2023-04-09T09:31:13.680Z,98902.72
2023-04-09T09:34:17.717Z,98905.47
2023-04-09T09:37:28.083Z,98904.81
2023-04-09T09:40:32.900Z,98913.53
2023-04-09T09:43:42.391Z,98918.66
2023-04-09T09:46:45.115Z,98909.31
2023-04-09T09:49:49.574Z,98912.56
2023-04-09T09:52:59.874Z,98915.25
2023-04-09T09:56:06.726Z,98907.47
2023-04-09T09:59:20.393Z,98910.72
2023-04-09T10:02:26.947Z,98898.28
2023-04-09T10:05:30.620Z,98904.69
2023-04-09T10:08:35.988Z,98907.34
2023-04-09T10:11:42.554Z,98904.22
2023-04-09T10:14:46.686Z,98900.19
2023-04-09T10:17:50.099Z,98896.69
2023-04-09T10:20:58.777Z,98899.88
2023-04-09T10:24:05.658Z,98892.38
2023-04-09T10:27:15.736Z,98883.56
2023-04-09T10:30:34.867Z,98888.66
2023-04-09T10:33:38.657Z,98888.00
2023-04-09T10:36:44.841Z,98875.50
2023-04-09T10:39:48.958Z,98890.81
2023-04-09T10:42:55.127Z,98884.75
2023-04-09T10:45:58.969Z,98879.97
2023-04-09T10:49:13.507Z,98877.56
2023-04-09T10:52:16.477Z,98871.63
2023-04-09T10:55:38.012Z,98877.94
2023-04-09T10:58:42.240Z,98876.31
2023-04-09T11:01:53.676Z,98877.78
2023-04-09T11:05:06.451Z,98872.34
2023-04-09T11:08:10.966Z,98869.75
2023-04-09T11:11:13.878Z,98865.78
2023-04-09T11:14:22.101Z,98874.97
2023-04-09T11:17:24.971Z,98879.91
2023-04-09T11:20:27.792Z,98873.69
2023-04-09T11:23:31.492Z,98875.72
2023-04-09T11:26:37.004Z,98857.75
2023-04-09T11:29:42.411Z,98863.84
2023-04-09T11:32:45.535Z,98862.00
2023-04-09T11:35:49.149Z,98857.41
2023-04-09T11:38:52.143Z,98854.81
2023-04-09T11:41:55.417Z,98850.47
2023-04-09T11:45:00.960Z,98857.91
2023-04-09T11:48:04.446Z,98856.19
2023-04-09T11:51:07.618Z,98861.34
2023-04-09T11:54:10.325Z,98858.78
2023-04-09T11:57:13.081Z,98855.47
2023-04-09T12:00:18.951Z,98851.59
2023-04-09T12:03:29.338Z,98842.41
2023-04-09T12:06:32.658Z,98843.34
2023-04-09T12:09:35.553Z,98851.16
2023-04-09T12:12:42.888Z,98846.34
2023-04-09T12:15:50.582Z,98844.81
2023-04-09T12:18:55.829Z,98846.75
2023-04-09T12:21:58.910Z,98848.91
2023-04-09T12:25:01.733Z,98845.00
2023-04-09T12:28:05.731Z,98840.63
2023-04-09T12:31:12.073Z,98837.25
2023-04-09T12:34:15.266Z,98843.13
2023-04-09T12:37:18.161Z,98836.94
2023-04-09T12:40:21.961Z,98832.81
2023-04-09T12:43:24.693Z,98815.22
2023-04-09T12:46:29.270Z,98815.34
2023-04-09T12:49:33.091Z,98812.34
2023-04-09T12:52:36.302Z,98803.06
2023-04-09T12:55:40.364Z,98813.84
2023-04-09T12:58:44.269Z,98806.41
2023-04-09T13:01:48.650Z,98808.41
2023-04-09T13:04:52.885Z,98797.56
2023-04-09T13:07:55.881Z,98789.59
2023-04-09T13:10:58.657Z,98795.06
2023-04-09T13:14:01.643Z,98787.84
2023-04-09T13:17:05.830Z,98784.97
2023-04-09T13:20:09.864Z,98787.88
2023-04-09T13:23:12.672Z,98777.19
2023-04-09T13:26:15.591Z,98775.69
2023-04-09T13:29:18.881Z,98777.03
2023-04-09T13:32:24.249Z,98783.59
2023-04-09T13:35:27.210Z,98775.72
2023-04-09T13:38:30.027Z,98775.94
2023-04-09T13:41:33.920Z,98767.63
2023-04-09T13:44:36.732Z,98767.25
2023-04-09T13:47:41.126Z,98757.88
2023-04-09T13:50:43.952Z,98755.09
2023-04-09T13:53:48.213Z,98752.25
2023-04-09T13:56:51.703Z,98755.47
2023-04-09T13:59:54.557Z,98747.38
2023-04-09T14:02:58.941Z,98744.59
2023-04-09T14:06:02.771Z,98740.88
2023-04-09T14:09:05.655Z,98735.88
2023-04-09T14:12:08.562Z,98741.72
2023-04-09T14:15:11.931Z,98734.97
2023-04-09T14:18:16.094Z,98726.28
2023-04-09T14:21:19.128Z,98724.19
2023-04-09T14:24:23.188Z,98717.34
2023-04-09T14:27:26.001Z,98717.84
2023-04-09T14:30:28.930Z,98712.56
2023-04-09T14:33:33.162Z,98720.75
2023-04-09T14:36:36.224Z,98710.63
2023-04-09T14:39:39.366Z,98717.78
2023-04-09T14:42:42.602Z,98708.69
2023-04-09T14:45:45.571Z,98717.16
2023-04-09T14:48:49.576Z,98717.69
2023-04-09T14:51:52.425Z,98728.50
2023-04-09T14:54:55.275Z,98728.59
2023-04-09T14:57:58.108Z,98725.56
2023-04-09T15:01:01.218Z,98725.50
2023-04-09T15:04:08.376Z,98731.94
2023-04-09T15:07:11.844Z,98729.97
2023-04-09T15:10:15.489Z,98735.16
2023-04-09T15:13:18.226Z,98727.16
2023-04-09T15:16:25.958Z,98726.28
2023-04-09T15:19:32.223Z,98723.75
2023-04-09T15:22:34.960Z,98722.94
2023-04-09T15:25:37.775Z,98723.38
2023-04-09T15:28:40.614Z,98720.16
2023-04-09T15:31:43.439Z,98720.38
2023-04-09T15:34:47.602Z,98721.34
2023-04-09T15:37:50.343Z,98716.50
2023-04-09T15:40:53.155Z,98724.03
2023-04-09T15:43:55.994Z,98732.22
2023-04-09T15:46:58.754Z,98728.28
2023-04-09T15:50:02.879Z,98728.09
2023-04-09T15:53:05.653Z,98718.19
2023-04-09T15:56:10.364Z,98715.53
2023-04-09T15:59:16.316Z,98714.63
2023-04-09T16:02:20.536Z,98712.28
2023-04-09T16:05:24.801Z,98711.31
2023-04-09T16:08:27.782Z,98714.00
2023-04-09T16:11:30.603Z,98715.69
2023-04-09T16:14:33.422Z,98722.22
2023-04-09T16:17:40.781Z,98723.91
2023-04-09T16:20:45.562Z,98722.28
2023-04-09T16:23:48.753Z,98709.44
2023-04-09T16:26:51.475Z,98715.78
2023-04-09T16:29:54.200Z,98707.69
2023-04-09T16:32:56.938Z,98711.69
2023-04-09T16:36:01.109Z,98712.59
2023-04-09T16:39:04.042Z,98714.22
2023-04-09T16:42:07.055Z,98714.44
2023-04-09T16:45:10.919Z,98723.22
2023-04-09T16:48:13.938Z,98720.81
2023-04-09T16:51:18.283Z,98719.25
2023-04-09T16:54:21.234Z,98713.00
2023-04-09T16:57:24.029Z,98719.78
2023-04-09T17:00:27.561Z,98715.78
2023-04-09T17:03:30.684Z,98720.97
2023-04-09T17:06:34.829Z,98716.63
2023-04-09T17:09:37.571Z,98721.59
2023-04-09T17:12:40.203Z,98715.69
2023-04-09T17:15:43.117Z,98722.31
2023-04-09T17:18:46.892Z,98721.75
2023-04-09T17:21:51.219Z,98724.47
2023-04-09T17:24:53.858Z,98723.03
2023-04-09T17:27:56.644Z,98721.75
2023-04-09T17:30:59.367Z,98718.38
2023-04-09T17:34:02.129Z,98712.50
2023-04-09T17:37:06.304Z,98716.81
2023-04-09T17:40:10.682Z,98718.78
2023-04-09T17:43:14.169Z,98721.56
2023-04-09T17:46:18.070Z,98722.44
2023-04-09T17:49:22.329Z,98728.16
2023-04-09T17:52:26.457Z,98731.09
2023-04-09T17:55:29.118Z,98734.91
2023-04-09T17:58:32.881Z,98731.97
2023-04-09T18:01:35.672Z,98737.69
2023-04-09T18:04:38.670Z,98741.78
2023-04-09T18:07:42.845Z,98738.34
2023-04-09T18:10:58.584Z,98745.06
2023-04-09T18:14:11.811Z,98752.91
2023-04-09T18:17:16.278Z,98755.56
2023-04-09T18:20:19.507Z,98752.38
2023-04-09T18:23:23.493Z,98759.91
2023-04-09T18:26:26.487Z,98766.94
2023-04-09T18:29:29.318Z,98771.78
2023-04-09T18:32:32.228Z,98780.38
2023-04-09T18:35:35.079Z,98798.19
2023-04-09T18:38:39.439Z,98799.00
2023-04-09T18:41:43.185Z,98800.84
2023-04-09T18:44:45.965Z,98802.75
2023-04-09T18:47:48.621Z,98805.47
2023-04-09T18:50:52.090Z,98800.59
2023-04-09T18:53:56.124Z,98803.59
2023-04-09T18:56:58.870Z,98805.19
2023-04-09T19:00:03.205Z,98806.84
2023-04-09T19:03:06.217Z,98811.97
2023-04-09T19:06:14.368Z,98817.59
2023-04-09T19:09:19.002Z,98818.16
2023-04-09T19:12:21.613Z,98820.28
2023-04-09T19:15:26.763Z,98812.75
2023-04-09T19:18:29.580Z,98811.38
2023-04-09T19:21:32.262Z,98813.84
2023-04-09T19:24:36.546Z,98810.59
2023-04-09T19:27:39.762Z,98821.34
2023-04-09T19:30:42.451Z,98817.84
2023-04-09T19:33:45.162Z,98822.16
2023-04-09T19:36:47.967Z,98814.63
2023-04-09T19:39:53.467Z,98819.19
2023-04-09T19:42:56.146Z,98824.53
2023-04-09T19:45:58.799Z,98836.38
2023-04-09T19:49:02.064Z,98830.44
2023-04-09T19:52:06.221Z,98825.59
2023-04-09T19:55:11.144Z,98825.03
2023-04-09T19:58:13.853Z,98828.50
2023-04-09T20:01:16.925Z,98833.81
2023-04-09T20:04:19.810Z,98834.06
2023-04-09T20:07:22.440Z,98832.19
2023-04-09T20:10:26.591Z,98837.81
2023-04-09T20:13:29.518Z,98837.78
2023-04-09T20:16:32.265Z,98840.75
2023-04-09T20:19:34.914Z,98839.94
2023-04-09T20:22:42.814Z,98838.78
2023-04-09T20:25:46.994Z,98832.50
2023-04-09T20:28:49.697Z,98829.44
2023-04-09T20:31:52.434Z,98832.00
2023-04-09T20:34:55.078Z,98834.47
2023-04-09T20:37:57.657Z,98844.56
2023-04-09T20:41:02.553Z,98844.44
2023-04-09T20:44:06.010Z,98840.47
2023-04-09T20:47:08.683Z,98848.94
2023-04-09T20:50:12.211Z,98854.44
2023-04-09T20:53:15.188Z,98851.94
2023-04-09T20:56:19.154Z,98864.16
2023-04-09T20:59:21.730Z,98847.66
2023-04-09T21:02:24.452Z,98845.84
2023-04-09T21:05:27.253Z,98842.00
2023-04-09T21:08:30.795Z,98830.84
2023-04-09T21:11:34.744Z,98830.72
2023-04-09T21:14:37.597Z,98828.84
2023-04-09T21:17:40.256Z,98824.47
2023-04-09T21:20:44.314Z,98818.56
2023-04-09T21:23:47.010Z,98829.13
2023-04-09T21:26:52.361Z,98824.44
2023-04-09T21:29:55.357Z,98817.63
2023-04-09T21:32:59.596Z,98819.34
2023-04-09T21:36:04.321Z,98814.88
2023-04-09T21:39:07.018Z,98816.34
2023-04-09T21:42:11.002Z,98814.41
2023-04-09T21:45:13.817Z,98814.09
2023-04-09T21:48:17.294Z,98816.34
2023-04-09T21:51:19.963Z,98825.00
2023-04-09T21:54:22.554Z,98821.16
2023-04-09T21:57:26.683Z,98821.50
2023-04-09T22:00:29.450Z,98815.22
2023-04-09T22:03:32.626Z,98815.53
2023-04-09T22:06:35.480Z,98818.25
2023-04-09T22:09:38.891Z,98822.06
2023-04-09T22:12:42.886Z,98823.03
2023-04-09T22:15:45.566Z,98824.13
2023-04-09T22:18:48.257Z,98819.81
2023-04-09T22:21:51.196Z,98819.59
2023-04-09T22:24:53.852Z,98822.72
2023-04-09T22:27:57.822Z,98821.22
2023-04-09T22:31:01.331Z,98817.41
2023-04-09T22:34:17.206Z,98816.59
2023-04-09T22:37:23.134Z,98809.63
2023-04-09T22:40:25.971Z,98804.63
2023-04-09T22:43:29.969Z,98802.09
2023-04-09T22:46:34.624Z,98803.41
2023-04-09T22:49:37.580Z,98787.41
2023-04-09T22:52:40.342Z,98783.88
2023-04-09T22:55:45.184Z,98786.69
2023-04-09T22:58:49.200Z,98787.38
2023-04-09T23:01:51.932Z,98784.31
2023-04-09T23:04:54.601Z,98793.88
2023-04-09T23:07:57.263Z,98796.06
2023-04-09T23:10:59.898Z,98800.44
2023-04-09T23:14:03.874Z,98807.38
2023-04-09T23:17:06.521Z,98806.34
2023-04-09T23:20:11.298Z,98812.03
2023-04-09T23:23:14.004Z,98811.59
2023-04-09T23:26:16.610Z,98812.09
2023-04-09T23:29:20.733Z,98801.19
2023-04-09T23:32:23.461Z,98805.34
2023-04-09T23:35:26.137Z,98808.66
2023-04-09T23:38:28.812Z,98811.84
2023-04-09T23:41:31.443Z,98807.56
2023-04-09T23:44:35.498Z,98816.06
2023-04-09T23:47:39.326Z,98808.75
2023-04-09T23:50:42.768Z,98805.38
2023-04-09T23:53:45.498Z,98809.44
2023-04-09T23:56:48.155Z,98800.28
2023-04-09T23:59:52.241Z,98800.13
